Time;durP1;ratioP1;P1;durP2;ratioP2;P2;SDS_P1;SDS_P2;PMS_P1;PMS_P2;Temp;Humidity;BMP_temperature;BMP_pressure;BME280_temperature;BME280_humidity;BME280_pressure;Samples;Min_cycle;Max_cycle;Signal;HPM_P1;HPM_P2
2020/12/11 00:01:01;;;;;;;86.17;33.30;;;;;;;1.25;81.68;98181.45;2268113;77;21296;-66
2020/12/11 00:04:04;;;;;;;82.80;32.35;;;;;;;1.26;81.56;98177.95;2302705;77;21680;-65
2020/12/11 00:07:06;;;;;;;85.17;33.02;;;;;;;1.21;81.55;98172.95;2302961;77;21087;-66
2020/12/11 00:10:08;;;;;;;87.08;34.50;;;;;;;1.21;81.49;98176.83;2302760;77;21115;-65
2020/12/11 00:13:11;;;;;;;84.58;31.65;;;;;;;1.17;81.62;98167.94;2302414;77;21237;-65
2020/12/11 00:16:13;;;;;;;82.72;30.60;;;;;;;1.20;81.77;98171.25;2302522;77;21743;-65
2020/12/11 00:19:16;;;;;;;83.37;31.65;;;;;;;1.30;81.78;98174.84;2302787;77;21569;-66
2020/12/11 00:22:18;;;;;;;76.85;30.25;;;;;;;1.30;81.48;98169.21;2302645;77;21712;-65
2020/12/11 00:25:20;;;;;;;79.62;31.75;;;;;;;1.29;81.51;98170.09;2302613;77;21289;-65
2020/12/11 00:28:23;;;;;;;82.40;33.50;;;;;;;1.33;81.28;98174.27;2274131;77;21783;-66
2020/12/11 00:31:25;;;;;;;83.97;33.92;;;;;;;1.33;81.28;98174.27;2303002;77;21130;-66
2020/12/11 00:34:27;;;;;;;81.82;31.87;;;;;;;1.27;81.19;98178.36;2302972;77;21185;-66
2020/12/11 00:37:29;;;;;;;75.67;31.52;;;;;;;1.23;81.32;98184.98;2302466;77;21724;-66
2020/12/11 00:40:31;;;;;;;78.90;30.57;;;;;;;1.20;81.25;98183.34;2273860;77;21248;-66
2020/12/11 00:43:33;;;;;;;75.55;30.40;;;;;;;1.18;81.46;98178.22;2302790;77;21564;-65
2020/12/11 00:46:36;;;;;;;79.07;32.50;;;;;;;1.20;81.44;98183.34;2302779;77;21531;-65
2020/12/11 00:49:38;;;;;;;79.72;31.95;;;;;;;1.20;81.43;98190.62;2302479;77;21237;-65
2020/12/11 00:52:40;;;;;;;80.35;31.12;;;;;;;1.16;81.36;98195.95;2302428;77;21272;-65
2020/12/11 00:55:42;;;;;;;77.27;32.00;;;;;;;1.13;81.45;98194.31;2302432;77;21260;-66
2020/12/11 00:58:44;;;;;;;81.28;31.82;;;;;;;1.10;81.63;98191.00;2303415;77;21254;-65
2020/12/11 01:01:46;;;;;;;86.00;35.52;;;;;;;1.14;81.57;98195.17;2294429;77;21538;-66
2020/12/11 01:04:48;;;;;;;88.70;36.35;;;;;;;1.09;81.66;98193.17;2288152;78;21249;-66
2020/12/11 01:07:50;;;;;;;85.65;34.43;;;;;;;1.13;81.49;98189.60;2288637;78;21131;-65
2020/12/11 01:10:52;;;;;;;81.87;32.98;;;;;;;1.15;81.68;98186.08;2288149;78;21708;-65
2020/12/11 01:13:54;;;;;;;84.30;33.38;;;;;;;1.19;81.52;98184.22;2288107;78;21254;-66
2020/12/11 01:16:56;;;;;;;76.70;31.37;;;;;;;1.36;81.87;98188.38;2288230;78;21781;-65
2020/12/11 01:19:58;;;;;;;74.25;29.77;;;;;;;1.40;81.19;98182.67;2288039;78;21298;-66
2020/12/11 01:23:01;;;;;;;75.80;30.40;;;;;;;1.36;81.29;98188.38;2288644;78;21118;-66
2020/12/11 01:26:03;;;;;;;75.42;31.35;;;;;;;1.40;81.13;98188.30;2288254;78;21689;-66
2020/12/11 01:29:05;;;;;;;81.65;34.70;;;;;;;1.38;81.16;98185.31;2288105;78;21257;-66
2020/12/11 01:32:07;;;;;;;82.37;33.88;;;;;;;1.43;81.13;98185.14;2288627;78;21149;-65
2020/12/11 01:35:09;;;;;;;88.35;35.88;;;;;;;1.36;81.01;98187.54;2288344;78;21692;-66
2020/12/11 01:38:11;;;;;;;91.22;37.40;;;;;;;1.34;81.05;98194.05;2288135;78;21277;-66
2020/12/11 01:41:13;;;;;;;92.55;38.67;;;;;;;1.33;81.12;98197.98;2288095;78;21285;-65
2020/12/11 01:44:15;;;;;;;87.12;34.43;;;;;;;1.33;81.11;98207.86;2288107;78;21697;-66
2020/12/11 01:47:17;;;;;;;84.42;32.35;;;;;;;1.31;81.06;98195.45;2288148;78;21752;-66
2020/12/11 01:50:19;;;;;;;79.32;32.03;;;;;;;1.27;81.17;98200.78;2288075;78;21256;-66
2020/12/11 01:53:21;;;;;;;86.30;31.10;;;;;;;1.24;81.24;98206.89;2288596;78;21146;-65
2020/12/11 01:56:23;;;;;;;79.32;31.33;;;;;;;1.23;81.20;98208.23;2288193;78;21753;-65
2020/12/11 01:59:26;;;;;;;82.12;32.08;;;;;;;1.18;81.24;98213.56;2288105;78;21249;-66
2020/12/11 02:02:29;;;;;;;79.55;31.45;;;;;;;1.15;81.34;98217.08;2288295;77;21565;-66
2020/12/11 02:05:31;;;;;;;80.87;32.80;;;;;;;1.13;81.52;98204.64;2288469;78;21249;-65
2020/12/11 02:08:33;;;;;;;72.92;30.65;;;;;;;1.14;81.45;98208.92;2288945;78;21300;-65
2020/12/11 02:11:35;;;;;;;78.22;31.57;;;;;;;1.09;81.39;98213.84;2288420;78;21570;-66
2020/12/11 02:14:38;;;;;;;78.42;31.00;;;;;;;1.02;81.62;98210.17;2288377;78;21174;-66
2020/12/11 02:17:40;;;;;;;82.00;31.10;;;;;;;1.06;81.86;98208.32;2260414;78;21269;-66
2020/12/11 02:20:42;;;;;;;79.72;30.23;;;;;;;1.06;81.71;98205.73;2288672;78;21558;-65
2020/12/11 02:23:44;;;;;;;75.70;29.52;;;;;;;1.08;81.71;98203.97;2288457;78;21154;-66
2020/12/11 02:26:46;;;;;;;79.07;32.20;;;;;;;1.06;81.66;98203.61;2288445;78;21099;-66
2020/12/11 02:29:48;;;;;;;79.07;31.73;;;;;;;0.99;81.69;98200.38;2288558;78;21685;-65
2020/12/11 02:32:50;;;;;;;79.50;31.80;;;;;;;0.94;81.81;98193.23;2288412;78;21120;-65
2020/12/11 02:35:53;;;;;;;73.10;29.25;;;;;;;0.94;81.87;98186.78;2288538;78;21155;-66
2020/12/11 02:38:55;;;;;;;82.10;31.50;;;;;;;0.86;81.83;98185.29;2288432;78;21083;-66
2020/12/11 02:41:57;;;;;;;82.20;32.35;;;;;;;0.83;81.96;98184.52;2288366;78;21152;-66
2020/12/11 02:44:59;;;;;;;82.65;31.87;;;;;;;0.85;82.14;98177.59;2288593;78;21538;-65
2020/12/11 02:48:01;;;;;;;81.82;34.60;;;;;;;0.92;82.32;98175.64;2288413;78;21083;-66
2020/12/11 02:51:03;;;;;;;81.28;32.55;;;;;;;0.98;82.03;98166.42;2260376;78;21261;-65
2020/12/11 02:54:05;;;;;;;80.10;31.42;;;;;;;1.02;82.10;98179.18;2288469;78;21578;-66
2020/12/11 02:57:07;;;;;;;80.07;30.00;;;;;;;1.01;82.03;98174.90;2288401;78;21269;-66
2020/12/11 03:00:09;;;;;;;77.45;31.30;;;;;;;1.09;81.87;98169.92;2288861;78;21277;-64
2020/12/11 03:03:11;;;;;;;84.35;34.15;;;;;;;1.02;81.78;98164.97;2288516;78;21131;-64
2020/12/11 03:06:13;;;;;;;75.28;31.27;;;;;;;1.09;81.89;98167.34;2288452;78;21244;-64
2020/12/11 03:09:15;;;;;;;76.77;31.87;;;;;;;1.08;81.87;98160.05;2288346;78;21269;-64
2020/12/11 03:12:18;;;;;;;85.92;33.73;;;;;;;1.07;81.70;98157.06;2288708;78;21115;-64
2020/12/11 03:15:20;;;;;;;90.72;36.83;;;;;;;1.09;81.86;98153.14;2288888;78;21150;-64
2020/12/11 03:18:22;;;;;;;82.00;31.48;;;;;;;1.07;81.74;98154.48;2288479;78;21131;-64
2020/12/11 03:21:24;;;;;;;82.17;32.20;;;;;;;1.08;81.71;98157.90;2288616;78;21107;-64
2020/12/11 03:24:26;;;;;;;80.97;31.77;;;;;;;1.10;81.91;98153.55;2289102;78;21138;-63
2020/12/11 03:27:28;;;;;;;78.80;31.55;;;;;;;1.11;81.84;98162.98;2288774;78;21558;-63
2020/12/11 03:30:30;;;;;;;77.78;30.97;;;;;;;1.13;81.79;98167.64;2288698;78;21140;-63
2020/12/11 03:33:32;;;;;;;78.40;31.07;;;;;;;1.12;81.86;98159.06;2288598;78;21293;-63
2020/12/11 03:36:34;;;;;;;81.25;32.67;;;;;;;1.10;81.80;98165.17;2288723;78;21582;-63
2020/12/11 03:39:36;;;;;;;81.28;32.08;;;;;;;1.08;81.89;98170.81;2288579;78;21155;-64
2020/12/11 03:42:39;;;;;;;83.05;32.90;;;;;;;1.08;81.97;98176.84;2288743;78;21550;-64
2020/12/11 03:45:41;;;;;;;77.58;32.20;;;;;;;1.08;81.94;98173.40;2260536;78;21261;-63
2020/12/11 03:48:43;;;;;;;83.90;33.95;;;;;;;1.02;81.94;98172.72;2260535;78;21305;-63
2020/12/11 03:51:45;;;;;;;79.67;33.13;;;;;;;1.00;82.12;98171.08;2289071;78;21269;-63
2020/12/11 03:54:47;;;;;;;78.97;32.80;;;;;;;0.98;82.32;98171.13;2288539;78;21186;-64
2020/12/11 03:57:49;;;;;;;77.55;33.20;;;;;;;0.95;82.25;98172.95;2289061;78;21253;-64
2020/12/11 04:00:52;;;;;;;;;;;;;;;0.89;82.41;98180.48;2291461;78;21265;-64
2020/12/11 04:03:55;;;;;;;82.22;32.55;;;;;;;0.94;82.60;98177.73;2288389;78;20155;-64
2020/12/11 04:06:57;;;;;;;80.12;32.98;;;;;;;1.06;82.71;98180.36;2287994;78;21313;-63
2020/12/11 04:09:59;;;;;;;84.20;35.73;;;;;;;1.09;82.54;98176.39;2288671;78;21134;-64
2020/12/11 04:13:01;;;;;;;81.85;35.13;;;;;;;1.03;82.37;98178.30;2288352;78;21118;-64
2020/12/11 04:16:03;;;;;;;84.85;35.33;;;;;;;0.96;82.59;98166.91;2288705;78;21566;-63
2020/12/11 04:19:06;;;;;;;89.32;35.33;;;;;;;1.03;82.62;98171.84;2288189;78;21241;-64
2020/12/11 04:22:08;;;;;;;87.47;35.35;;;;;;;1.04;82.50;98172.20;2288679;78;21131;-63
2020/12/11 04:25:10;;;;;;;92.05;36.77;;;;;;;1.04;82.52;98173.50;2288157;78;21705;-63
2020/12/11 04:28:12;;;;;;;84.92;34.38;;;;;;;1.09;82.77;98177.67;2288154;78;21257;-64
2020/12/11 04:31:14;;;;;;;85.10;35.30;;;;;;;1.24;82.89;98181.05;2288171;78;21561;-63
2020/12/11 04:34:16;;;;;;;79.32;33.83;;;;;;;1.33;82.49;98179.90;2288100;78;21313;-64
2020/12/11 04:37:18;;;;;;;80.55;35.13;;;;;;;1.31;82.11;98179.95;2288639;78;21118;-64
2020/12/11 04:40:20;;;;;;;76.10;34.00;;;;;;;1.29;82.20;98176.55;2288129;78;21708;-64
2020/12/11 04:43:22;;;;;;;76.25;32.88;;;;;;;1.25;82.24;98175.42;2288189;78;21246;-63
2020/12/11 04:46:24;;;;;;;83.35;34.10;;;;;;;1.24;82.34;98168.13;2288669;78;21142;-64
2020/12/11 04:49:27;;;;;;;79.77;33.95;;;;;;;1.24;82.33;98168.13;2288431;78;21119;-63
2020/12/11 04:52:29;;;;;;;81.65;35.10;;;;;;;1.22;82.34;98156.98;2288670;78;21143;-64
2020/12/11 04:55:31;;;;;;;78.25;31.42;;;;;;;1.20;82.39;98167.84;2288260;78;21255;-64
2020/12/11 04:58:33;;;;;;;66.50;30.57;;;;;;;1.18;82.44;98169.64;2288641;78;21087;-64
2020/12/11 05:01:35;;;;;;;85.15;34.85;;;;;;;1.14;82.47;98174.05;2288192;77;21573;-64
2020/12/11 05:04:37;;;;;;;86.22;35.28;;;;;;;1.19;82.78;98173.89;2288164;78;21304;-63
2020/12/11 05:07:39;;;;;;;85.55;35.50;;;;;;;1.18;82.53;98170.93;2288645;78;21134;-63
2020/12/11 05:10:41;;;;;;;85.70;34.98;;;;;;;1.12;82.64;98166.81;2288239;78;21676;-63
2020/12/11 05:13:44;;;;;;;79.45;32.42;;;;;;;1.14;82.96;98168.88;2288107;78;21731;-63
2020/12/11 05:16:47;;;;;;;72.40;31.65;;;;;;;1.18;82.75;98170.93;2288383;78;21154;-64
2020/12/11 05:19:49;;;;;;;71.65;29.75;;;;;;;1.08;82.78;98166.94;2288373;78;21115;-64
2020/12/11 05:22:51;;;;;;;72.20;30.23;;;;;;;1.03;82.97;98163.22;2288374;78;21131;-64
2020/12/11 05:25:53;;;;;;;73.83;31.73;;;;;;;1.03;83.23;98167.97;2288152;78;21237;-63
2020/12/11 05:28:55;;;;;;;70.75;29.35;;;;;;;1.08;83.16;98172.11;2288373;78;21107;-64
2020/12/11 05:31:57;;;;;;;70.05;30.88;;;;;;;1.09;83.10;98178.52;2288373;78;21131;-63
2020/12/11 05:34:59;;;;;;;72.08;29.48;;;;;;;1.12;83.27;98174.98;2288334;78;21697;-64
2020/12/11 05:38:02;;;;;;;71.30;28.15;;;;;;;1.14;83.05;98181.80;2288339;78;21233;-64
2020/12/11 05:41:05;;;;;;;73.42;30.35;;;;;;;1.20;82.94;98184.63;2287935;78;21249;-64
2020/12/11 05:44:07;;;;;;;69.85;30.02;;;;;;;1.21;83.05;98189.74;2288039;78;21305;-64
2020/12/11 05:47:09;;;;;;;74.30;31.27;;;;;;;1.24;83.13;98185.39;2288592;78;21257;-64
2020/12/11 05:50:19;;;;;;;70.22;30.80;;;;;;;1.24;82.93;98182.34;2288316;78;21725;-63
2020/12/11 05:53:15;;;;;;;73.78;30.85;;;;;;;1.20;83.01;98178.17;2287155;77;21254;-63
2020/12/11 05:56:17;;;;;;;70.10;30.57;;;;;;;1.24;83.14;98182.80;2288067;78;21261;-64
2020/12/11 05:59:19;;;;;;;70.45;30.20;;;;;;;1.25;82.91;98187.91;2288341;78;21673;-63
2020/12/11 06:02:22;;;;;;;72.45;30.35;;;;;;;1.25;82.93;98189.64;2288374;78;21135;-64
2020/12/11 06:05:24;;;;;;;70.75;28.90;;;;;;;1.21;82.94;98191.03;2289005;78;21285;-63
2020/12/11 06:08:26;;;;;;;70.83;29.27;;;;;;;1.23;83.10;98194.02;2288481;78;21119;-63
2020/12/11 06:11:28;;;;;;;74.07;30.17;;;;;;;1.22;83.07;98197.03;2288963;78;21265;-63
2020/12/11 06:14:30;;;;;;;72.72;28.67;;;;;;;1.22;83.21;98200.91;2288794;78;21701;-63
2020/12/11 06:17:32;;;;;;;69.30;28.75;;;;;;;1.31;83.20;98198.50;2288954;78;21122;-63
2020/12/11 06:20:34;;;;;;;73.33;31.35;;;;;;;1.38;83.05;98194.35;2288442;78;21134;-63
2020/12/11 06:23:37;;;;;;;76.57;32.80;;;;;;;1.47;82.92;98180.27;2288689;78;21175;-63
2020/12/11 06:26:39;;;;;;;86.90;33.95;;;;;;;1.48;82.60;98181.10;2288965;78;21549;-63
2020/12/11 06:29:41;;;;;;;118.05;44.40;;;;;;;1.44;82.55;98189.42;2288428;78;21122;-63
2020/12/11 06:32:43;;;;;;;101.72;41.28;;;;;;;1.43;82.58;98195.48;2288458;78;21131;-63
2020/12/11 06:35:45;;;;;;;77.30;32.03;;;;;;;1.40;82.62;98197.34;2288683;78;21257;-64
2020/12/11 06:38:47;;;;;;;79.77;30.32;;;;;;;1.38;82.54;98204.69;2288411;78;21142;-64
2020/12/11 06:41:49;;;;;;;70.57;31.42;;;;;;;1.33;82.71;98207.03;2288664;78;21269;-64
2020/12/11 06:44:54;;;;;;;88.10;38.45;;;;;;;1.33;82.84;98207.03;2288708;78;21138;-64
2020/12/11 06:47:56;;;;;;;78.87;34.15;;;;;;;1.35;83.02;98204.80;2288358;78;21594;-64
2020/12/11 06:50:58;;;;;;;77.08;34.48;;;;;;;1.46;82.95;98203.13;2288697;78;21253;-63
2020/12/11 06:54:01;;;;;;;67.92;30.37;;;;;;;1.54;82.78;98205.47;2288826;78;21677;-63
2020/12/11 06:57:03;;;;;;;75.85;34.25;;;;;;;1.54;82.57;98196.42;2288663;78;21104;-63
2020/12/11 07:00:05;;;;;;;75.28;31.65;;;;;;;1.53;82.58;98201.19;2288866;78;21707;-63
2020/12/11 07:03:07;;;;;;;78.42;33.58;;;;;;;1.49;82.74;98196.55;2288943;78;21288;-63
2020/12/11 07:06:10;;;;;;;73.10;29.70;;;;;;;1.56;82.64;98203.20;2289149;78;21273;-63
2020/12/11 07:09:12;;;;;;;70.85;30.62;;;;;;;1.54;82.41;98205.01;2288485;78;21106;-63
2020/12/11 07:12:15;;;;;;;69.50;30.75;;;;;;;1.42;82.51;98210.58;2288746;78;21606;-63
2020/12/11 07:15:17;;;;;;;73.00;31.65;;;;;;;1.45;82.69;98202.75;2288865;78;21309;-64
2020/12/11 07:18:19;;;;;;;71.95;29.95;;;;;;;1.56;83.00;98207.08;2260676;78;21586;-63
2020/12/11 07:21:21;;;;;;;74.20;31.60;;;;;;;1.58;82.35;98213.52;2288900;78;21106;-63
2020/12/11 07:24:24;;;;;;;68.85;30.15;;;;;;;1.60;82.49;98208.30;2288658;78;21127;-63
2020/12/11 07:27:26;;;;;;;69.42;28.62;;;;;;;1.58;82.45;98210.94;2288864;78;21727;-63
2020/12/11 07:30:28;;;;;;;65.35;27.87;;;;;;;1.56;82.33;98216.59;2288824;78;21694;-63
2020/12/11 07:33:30;;;;;;;67.65;29.00;;;;;;;1.47;82.40;98224.20;2288633;78;21123;-64
2020/12/11 07:36:32;;;;;;;67.08;27.85;;;;;;;1.45;82.65;98220.84;2288995;78;21262;-63
2020/12/11 07:39:34;;;;;;;68.02;28.32;;;;;;;1.37;82.58;98209.45;2288863;78;21293;-63
2020/12/11 07:42:37;;;;;;;65.37;27.82;;;;;;;1.39;82.83;98214.56;2288632;78;21142;-63
2020/12/11 07:45:41;;;;;;;70.20;30.45;;;;;;;1.41;82.72;98218.39;2288818;78;21642;-64
2020/12/11 07:48:43;;;;;;;65.92;28.23;;;;;;;1.42;82.83;98214.45;2288801;78;21273;-63
2020/12/11 07:51:45;;;;;;;73.10;30.10;;;;;;;1.38;82.80;98210.31;2289130;78;21257;-63
2020/12/11 07:54:47;;;;;;;66.85;28.52;;;;;;;1.45;82.91;98212.23;2288577;78;21296;-64
2020/12/11 07:57:49;;;;;;;66.28;28.90;;;;;;;1.56;82.94;98208.83;2289047;78;21253;-64
2020/12/11 08:00:51;;;;;;;65.42;28.35;;;;;;;1.71;82.62;98213.48;2288827;78;21257;-63
2020/12/11 08:03:53;;;;;;;67.78;29.50;;;;;;;1.72;82.31;98204.84;2288227;77;21304;-63
2020/12/11 08:06:56;;;;;;;63.90;27.62;;;;;;;1.78;82.32;98189.55;2288517;78;21127;-63
2020/12/11 08:09:58;;;;;;;72.08;30.10;;;;;;;1.85;82.09;98194.91;2288434;78;21503;-63
2020/12/11 08:13:00;;;;;;;68.60;29.15;;;;;;;1.86;82.21;98192.69;2288318;78;21281;-64
2020/12/11 08:16:02;;;;;;;65.00;28.47;;;;;;;1.88;81.92;98194.79;2288120;78;21281;-63
2020/12/11 08:19:04;;;;;;;65.87;28.35;;;;;;;1.90;82.19;98198.61;2288212;78;21257;-63
2020/12/11 08:22:07;;;;;;;66.30;28.17;;;;;;;1.88;82.04;98203.84;2269398;78;21276;-63
2020/12/11 08:25:09;;;;;;;64.10;26.40;;;;;;;1.83;82.17;98193.27;2288688;78;21135;-63
2020/12/11 08:28:11;;;;;;;66.70;28.00;;;;;;;1.82;82.00;98194.98;2288302;78;21681;-64
2020/12/11 08:31:13;;;;;;;68.57;28.77;;;;;;;1.90;82.20;98197.31;2288413;78;21129;-63
2020/12/11 08:34:15;;;;;;;66.50;28.87;;;;;;;1.90;82.01;98203.78;2288170;78;21254;-63
2020/12/11 08:37:18;;;;;;;61.80;26.75;;;;;;;1.97;82.05;98191.02;2288030;78;21295;-64
2020/12/11 08:40:20;;;;;;;64.10;26.73;;;;;;;1.94;81.93;98190.27;2288242;78;21289;-64
2020/12/11 08:43:29;;;;;;;71.95;29.57;;;;;;;1.98;81.99;98191.39;2269395;78;21256;-63
2020/12/11 08:46:34;;;;;;;63.80;28.00;;;;;;;2.15;82.02;98188.66;2287587;77;21107;-63
2020/12/11 08:49:32;;;;;;;64.67;26.45;;;;;;;2.20;81.71;98194.52;2287560;77;21692;-63
2020/12/11 08:52:35;;;;;;;60.67;24.95;;;;;;;2.23;81.63;98195.23;2288274;78;21273;-64
2020/12/11 08:55:38;;;;;;;63.90;26.17;;;;;;;2.20;81.41;98199.23;2288332;78;21709;-63
2020/12/11 08:58:40;;;;;;;59.77;24.70;;;;;;;2.14;81.23;98191.70;2287971;78;21254;-63
2020/12/11 09:01:43;;;;;;;;;;;;;;;2.13;81.28;98199.53;2290883;78;21276;-63
2020/12/11 09:04:47;;;;;;;57.67;24.27;;;;;;;2.12;81.11;98192.66;2288852;77;20132;-64
2020/12/11 09:07:50;;;;;;;55.17;23.77;;;;;;;2.12;81.38;98190.91;2288319;78;21154;-63
2020/12/11 09:10:52;;;;;;;54.95;22.93;;;;;;;2.22;81.08;98183.65;2289023;78;21252;-63
2020/12/11 09:13:55;;;;;;;;;;;;;;;2.27;80.83;98186.92;2291621;78;21269;-63
2020/12/11 09:16:57;;;;;;;57.40;24.35;;;;;;;2.32;80.85;98184.98;2288388;78;20175;-63
2020/12/11 09:19:59;;;;;;;54.13;23.20;;;;;;;2.43;80.98;98180.25;2288449;78;21092;-63
2020/12/11 09:23:02;;;;;;;53.78;23.00;;;;;;;2.48;80.68;98185.24;2288629;78;21100;-64
2020/12/11 09:26:04;;;;;;;55.85;24.50;;;;;;;2.61;80.78;98192.09;2288635;78;21574;-64
2020/12/11 09:29:12;;;;;;;49.63;22.62;;;;;;;2.63;79.75;98190.30;2288998;78;21265;-64
2020/12/11 09:32:17;;;;;;;52.45;22.32;;;;;;;2.51;79.83;98184.29;2196980;81;21716;-64
2020/12/11 09:35:16;;;;;;;48.48;21.77;;;;;;;2.48;79.84;98190.42;2235043;80;21319;-66
2020/12/11 09:38:19;;;;;;;53.78;22.77;;;;;;;2.38;79.56;98186.50;2236160;80;21703;-66
2020/12/11 09:41:26;;;;;;;49.23;21.60;;;;;;;2.26;79.78;98176.17;2236094;80;21624;-66
2020/12/11 09:44:49;;;;;;;51.37;22.62;;;;;;;2.20;79.93;98170.77;2235441;80;21316;-66
2020/12/11 09:48:02;;;;;;;55.63;23.80;;;;;;;2.24;80.59;98167.60;2235081;80;21260;-66
2020/12/11 09:51:09;;;;;;;54.15;22.75;;;;;;;2.23;80.20;98171.11;2235503;80;21577;-66
2020/12/11 09:54:12;;;;;;;48.20;21.02;;;;;;;2.20;80.73;98173.36;2235033;80;21287;-66
2020/12/11 09:57:14;;;;;;;50.67;21.52;;;;;;;2.31;80.57;98171.64;2204580;80;21304;-66
2020/12/11 10:00:17;;;;;;;49.00;20.97;;;;;;;2.38;80.74;98175.69;2235919;80;21268;-66
2020/12/11 10:03:22;;;;;;;48.63;22.02;;;;;;;2.43;80.37;98180.25;2241534;79;21721;-66
2020/12/11 10:06:25;;;;;;;51.73;20.88;;;;;;;2.44;80.21;98169.43;2223650;79;21257;-66
2020/12/11 10:09:27;;;;;;;48.80;21.05;;;;;;;2.48;80.23;98168.41;2253208;79;21111;-66
2020/12/11 10:12:31;;;;;;;45.63;19.35;;;;;;;2.51;79.71;98161.82;2253450;79;21261;-66
2020/12/11 10:15:34;;;;;;;47.62;20.57;;;;;;;2.47;79.46;98162.00;2222629;79;21575;-66
2020/12/11 10:18:39;;;;;;;;;;;;;;;2.45;79.83;98158.19;2255971;79;21292;-66
2020/12/11 10:21:40;;;;;;;46.58;19.62;;;;;;;2.50;79.69;98159.30;2253176;78;20225;-66
2020/12/11 10:24:43;;;;;;;47.35;20.55;;;;;;;2.41;79.32;98158.77;2253428;79;21297;-65
2020/12/11 10:27:45;;;;;;;47.25;20.23;;;;;;;2.37;79.25;98160.22;2253489;79;21138;-65
2020/12/11 10:30:47;;;;;;;46.63;21.60;;;;;;;2.30;79.69;98156.17;2253446;79;21737;-66
2020/12/11 10:33:50;;;;;;;46.55;19.98;;;;;;;2.37;79.84;98155.91;2224133;79;21689;-65
2020/12/11 10:36:52;;;;;;;47.13;20.02;;;;;;;2.47;79.95;98150.36;2223861;79;21269;-66
2020/12/11 10:39:54;;;;;;;49.50;22.40;;;;;;;2.55;79.91;98147.86;2253842;79;21141;-66
2020/12/11 10:42:56;;;;;;;52.33;23.20;;;;;;;2.63;79.43;98138.95;2194411;80;21113;-66
2020/12/11 10:45:58;;;;;;;49.53;23.10;;;;;;;2.69;79.73;98144.73;2214708;79;21294;-66
2020/12/11 10:49:00;;;;;;;49.83;22.93;;;;;;;2.80;79.53;98144.75;2224573;80;21295;-66
2020/12/11 10:52:05;;;;;;;46.08;20.08;;;;;;;2.89;79.53;98142.64;2242665;79;21300;-66
2020/12/11 10:55:07;;;;;;;48.92;20.30;;;;;;;2.87;78.59;98140.54;2224377;80;21283;-66
2020/12/11 10:58:10;;;;;;;44.75;19.27;;;;;;;2.58;79.08;98123.13;2242653;79;21147;-66
2020/12/11 11:01:12;;;;;;;49.00;21.55;;;;;;;2.58;79.08;98123.13;2224351;80;21085;-65
2020/12/11 11:04:14;;;;;;;44.63;20.12;;;;;;;2.67;79.26;98127.13;2253021;78;21154;-66
2020/12/11 11:07:19;;;;;;;47.03;20.43;;;;;;;2.73;79.63;98124.72;2257757;79;21284;-65
2020/12/11 11:10:29;;;;;;;45.95;19.07;;;;;;;2.72;79.05;98126.48;2298535;77;21711;-65
2020/12/11 11:13:31;;;;;;;43.38;19.32;;;;;;;2.58;78.89;98133.95;2297501;77;21257;-65
2020/12/11 11:16:44;;;;;;;45.17;19.15;;;;;;;2.38;78.93;98130.84;2297719;77;21146;-66
2020/12/11 11:19:46;;;;;;;45.30;19.55;;;;;;;2.24;79.16;98121.88;2297248;77;21293;-66
2020/12/11 11:22:53;;;;;;;46.55;19.40;;;;;;;2.16;79.55;98120.50;2297938;77;21252;-65
2020/12/11 11:29:14;;;;;;;46.28;20.08;;;;;;;2.04;80.06;98108.84;2298914;77;21261;-66
2020/12/11 11:32:16;;;;;;;44.38;19.45;;;;;;;2.07;80.14;98109.59;2299039;77;21285;-66
2020/12/11 11:35:19;;;;;;;;;;;;;;;2.04;80.07;98104.53;2301209;77;21605;-66
2020/12/11 11:38:21;;;;;;;44.33;17.55;;;;;;;2.01;80.04;98100.77;2299095;77;20223;-66
2020/12/11 11:44:53;;;;;;;48.25;20.80;;;;;;;1.88;80.33;98090.47;2277168;77;21273;-65
2020/12/11 11:47:56;;;;;;;44.60;18.35;;;;;;;1.79;80.63;98080.03;2298557;77;21269;-65
2020/12/11 11:51:03;;;;;;;42.30;17.77;;;;;;;1.68;80.76;98079.58;2298478;77;21573;-65
2020/12/11 11:54:03;;;;;;;41.83;18.05;;;;;;;1.57;80.95;98077.41;2298045;77;21237;-65
2020/12/11 11:57:06;;;;;;;;;;;;;;;1.61;81.18;98075.53;2301096;77;21293;-66
2020/12/11 12:00:08;;;;;;;44.65;17.98;;;;;;;1.57;81.15;98070.94;2299129;77;20217;-66
2020/12/11 12:03:11;;;;;;;43.45;18.57;;;;;;;1.49;81.30;98078.12;2298683;77;22054;-66
2020/12/11 12:06:13;;;;;;;44.60;19.73;;;;;;;1.48;81.51;98073.41;2298514;77;21237;-65
2020/12/11 12:09:17;;;;;;;45.17;19.35;;;;;;;1.53;81.32;98074.06;2298695;77;21704;-65
2020/12/11 12:12:20;;;;;;;46.25;19.67;;;;;;;1.52;81.58;98074.99;2298316;77;21131;-65
2020/12/11 12:15:24;;;;;;;42.23;18.10;;;;;;;1.44;81.55;98070.97;2298509;77;21707;-66
2020/12/11 12:18:26;;;;;;;43.92;17.75;;;;;;;1.28;81.64;98065.51;2298602;77;21669;-65
2020/12/11 12:21:36;;;;;;;44.95;17.73;;;;;;;1.26;81.83;98067.31;2298767;77;21260;-65
2020/12/11 12:31:26;;;;;;;41.55;16.32;;;;;;;1.09;82.17;98057.56;2298824;77;21122;-66
2020/12/11 12:34:46;;;;;;;41.35;17.45;;;;;;;1.04;82.48;98056.45;2276782;77;21233;-65
2020/12/11 12:37:48;;;;;;;44.75;17.92;;;;;;;1.05;82.49;98049.09;2298135;77;21707;-65
2020/12/11 12:44:11;;;;;;;45.48;18.85;;;;;;;1.10;82.54;98054.09;2298404;77;21261;-65
2020/12/11 12:47:13;;;;;;;47.78;19.52;;;;;;;1.17;82.38;98049.11;2298994;77;21267;-66
2020/12/11 12:50:15;;;;;;;49.93;19.98;;;;;;;1.23;82.47;98055.34;2298457;77;21115;-65
2020/12/11 12:53:17;;;;;;;47.53;19.70;;;;;;;1.34;82.48;98060.97;2298689;77;21712;-65
2020/12/11 12:56:44;;;;;;;46.13;19.00;;;;;;;1.36;82.21;98060.45;2298892;77;21272;-65
2020/12/11 12:59:48;;;;;;;46.15;19.00;;;;;;;1.32;81.95;98048.57;2298071;77;21138;-65
2020/12/11 13:06:25;;;;;;;46.83;19.25;;;;;;;1.24;82.12;98056.20;2298336;77;21229;-65
2020/12/11 13:09:28;;;;;;;44.05;19.07;;;;;;;1.14;82.26;98053.93;2298589;77;21724;-65
2020/12/11 13:12:30;;;;;;;46.35;19.15;;;;;;;1.15;82.43;98053.05;2298937;77;21095;-65
2020/12/11 13:15:32;;;;;;;42.98;18.62;;;;;;;1.05;82.33;98054.27;2298381;77;21700;-65
2020/12/11 13:18:35;;;;;;;45.40;18.65;;;;;;;0.98;82.57;98039.88;2298902;77;21256;-65
2020/12/11 13:21:42;;;;;;;45.38;18.80;;;;;;;0.98;82.78;98038.12;2298408;77;21720;-65
2020/12/11 13:28:02;;;;;;;39.80;16.67;;;;;;;0.97;82.96;98039.48;2298774;77;21260;-65
2020/12/11 13:31:04;;;;;;;45.78;18.32;;;;;;;0.97;82.80;98040.30;2298522;77;21696;-65
2020/12/11 13:34:06;;;;;;;45.52;18.40;;;;;;;0.97;82.87;98038.19;2298403;77;21245;-66
2020/12/11 13:37:08;;;;;;;44.10;18.73;;;;;;;0.92;82.88;98030.60;2298786;77;21277;-66
2020/12/11 13:40:11;;;;;;;46.55;19.73;;;;;;;0.91;83.05;98028.91;2298662;77;21229;-66
2020/12/11 13:43:13;;;;;;;44.40;18.40;;;;;;;0.93;83.07;98030.14;2299022;77;21284;-65
2020/12/11 13:46:15;;;;;;;52.65;20.95;;;;;;;1.00;83.20;98035.03;2298409;77;21268;-65
2020/12/11 13:49:18;;;;;;;52.75;22.40;;;;;;;1.04;82.96;98032.73;2298612;77;21276;-66
2020/12/11 13:52:20;;;;;;;51.33;20.12;;;;;;;1.13;83.03;98038.48;2298385;77;21589;-65
2020/12/11 13:55:22;;;;;;;46.45;19.77;;;;;;;1.27;82.82;98042.72;2298323;77;21292;-66
2020/12/11 13:58:25;;;;;;;46.08;20.12;;;;;;;1.32;82.66;98039.95;2298738;77;21269;-65
2020/12/11 14:01:27;;;;;;;49.10;21.17;;;;;;;1.33;82.57;98037.31;2298645;77;21269;-65
2020/12/11 14:04:29;;;;;;;42.38;16.65;;;;;;;1.32;82.34;98031.78;2298622;77;21311;-65
2020/12/11 14:07:32;;;;;;;43.15;16.32;;;;;;;1.22;82.30;98023.94;2298634;77;21265;-65
2020/12/11 14:10:34;;;;;;;42.70;17.75;;;;;;;1.13;82.39;98017.82;2298426;77;21260;-65
2020/12/11 14:13:36;;;;;;;42.00;17.02;;;;;;;1.07;82.56;98024.51;2298531;77;21700;-65
2020/12/11 14:16:42;;;;;;;45.03;18.15;;;;;;;1.06;82.85;98021.52;2298848;77;21297;-65
2020/12/11 14:23:13;;;;;;;43.00;17.32;;;;;;;1.07;82.89;98020.17;2292508;77;21756;-65
2020/12/11 14:26:18;;;;;;;47.80;18.37;;;;;;;1.08;82.80;98029.61;2298233;77;21696;-65
2020/12/11 14:29:21;;;;;;;44.80;17.90;;;;;;;1.08;82.77;98027.46;2298223;77;21257;-65
2020/12/11 14:32:23;;;;;;;42.93;18.17;;;;;;;1.10;82.69;98026.98;2298486;77;21577;-65
2020/12/11 14:35:25;;;;;;;43.92;17.60;;;;;;;1.06;82.73;98028.81;2277020;77;21265;-65
2020/12/11 14:38:59;;;;;;;45.43;18.30;;;;;;;0.97;82.79;98029.14;2298345;77;21711;-65